createdAt,value
2023-02-11T00:00:55.327Z,25.00
2023-02-11T00:03:22.269Z,24.90
2023-02-11T00:05:57.628Z,24.07
2023-02-11T00:08:24.488Z,24.30
2023-02-11T00:10:52.516Z,25.17
2023-02-11T00:13:19.344Z,24.83
2023-02-11T00:15:46.169Z,24.17
2023-02-11T00:18:14.443Z,22.80
2023-02-11T00:20:41.865Z,24.40
2023-02-11T00:23:08.930Z,24.73
2023-02-11T00:25:39.594Z,22.77
2023-02-11T00:28:06.522Z,23.20
2023-02-11T00:30:33.724Z,25.07
2023-02-11T00:33:00.662Z,24.43
2023-02-11T00:35:29.250Z,24.23
2023-02-11T00:37:56.719Z,25.57
2023-02-11T00:40:24.629Z,24.93
2023-02-11T00:42:51.579Z,24.57
2023-02-11T00:45:20.785Z,25.23
2023-02-11T00:47:47.835Z,24.60
2023-02-11T00:50:14.850Z,24.40
2023-02-11T00:52:43.068Z,25.13
2023-02-11T00:55:09.955Z,25.93
2023-02-11T00:57:37.149Z,25.07
2023-02-11T01:00:05.651Z,24.30
2023-02-11T01:02:32.890Z,24.77
2023-02-11T01:05:00.118Z,26.63
2023-02-11T01:07:27.508Z,26.13
2023-02-11T01:09:55.943Z,25.87
2023-02-11T01:12:23.158Z,25.63
2023-02-11T01:14:50.034Z,26.07
2023-02-11T01:17:16.909Z,24.50
2023-02-11T01:19:43.781Z,26.50
2023-02-11T01:22:10.661Z,25.60
2023-02-11T01:24:37.533Z,25.13
2023-02-11T01:27:05.741Z,26.97
2023-02-11T01:29:32.659Z,25.07
2023-02-11T01:32:00.387Z,26.70
2023-02-11T01:34:27.352Z,25.73
2023-02-11T01:36:57.647Z,24.40
2023-02-11T01:39:24.512Z,26.37
2023-02-11T01:41:51.499Z,25.77
2023-02-11T01:44:26.256Z,25.57
2023-02-11T01:46:54.171Z,25.80
2023-02-11T01:49:25.341Z,26.10
2023-02-11T01:51:56.732Z,24.27
2023-02-11T01:54:46.477Z,24.87
2023-02-11T01:57:22.418Z,24.33
2023-02-11T02:00:02.034Z,23.83
2023-02-11T02:02:34.531Z,23.73
2023-02-11T02:05:07.126Z,25.73
2023-02-11T02:07:38.958Z,25.57
2023-02-11T02:10:11.324Z,23.60
2023-02-11T02:12:38.275Z,24.57
2023-02-11T02:15:19.799Z,23.20
2023-02-11T02:17:57.582Z,24.50
2023-02-11T02:21:07.169Z,23.60
2023-02-11T02:24:03.415Z,24.23
2023-02-11T02:27:11.286Z,24.80
2023-02-11T02:30:11.212Z,24.30
2023-02-11T02:32:49.605Z,25.13
2023-02-11T02:35:30.048Z,23.40
2023-02-11T02:38:03.185Z,25.43
2023-02-11T02:40:33.434Z,25.63
2023-02-11T02:43:02.186Z,26.63
2023-02-11T02:45:29.224Z,26.70
2023-02-11T02:47:58.339Z,27.87
2023-02-11T02:50:32.457Z,27.13
2023-02-11T02:53:12.176Z,25.97
2023-02-11T02:55:52.711Z,25.83
2023-02-11T02:58:34.294Z,27.57
2023-02-11T03:01:08.568Z,26.63
2023-02-11T03:03:46.827Z,26.83
2023-02-11T03:06:22.563Z,28.70
2023-02-11T03:08:55.071Z,26.77
2023-02-11T03:11:23.046Z,26.50
2023-02-11T03:13:51.735Z,27.70
2023-02-11T03:16:22.876Z,29.13
2023-02-11T03:18:56.417Z,26.13
2023-02-11T03:21:25.219Z,28.53
2023-02-11T03:23:56.370Z,27.63
2023-02-11T03:26:29.503Z,27.33
2023-02-11T03:29:03.406Z,27.97
2023-02-11T03:31:35.855Z,28.27
2023-02-11T03:34:08.739Z,27.27
2023-02-11T03:36:45.903Z,29.17
2023-02-11T03:39:14.611Z,27.97
2023-02-11T03:41:43.528Z,26.90
2023-02-11T03:44:12.618Z,26.63
2023-02-11T03:46:41.899Z,26.67
2023-02-11T03:49:13.500Z,28.20
2023-02-11T03:51:41.004Z,28.07
2023-02-11T03:54:14.184Z,26.87
2023-02-11T03:56:46.000Z,27.90
2023-02-11T03:59:12.909Z,28.40
2023-02-11T04:01:39.765Z,26.33
2023-02-11T04:04:06.661Z,27.73
2023-02-11T04:06:34.844Z,27.10
2023-02-11T04:09:01.791Z,26.77
2023-02-11T04:11:28.676Z,27.83
2023-02-11T04:13:55.511Z,27.73
2023-02-11T04:16:22.550Z,27.47
2023-02-11T04:18:49.708Z,27.67
2023-02-11T04:21:16.635Z,26.40
2023-02-11T04:23:44.874Z,27.57
2023-02-11T04:26:11.746Z,27.33
2023-02-11T04:28:38.632Z,26.20
2023-02-11T04:31:05.799Z,26.33
2023-02-11T04:33:32.708Z,25.63
2023-02-11T04:35:59.532Z,27.37
2023-02-11T04:38:26.476Z,26.60
2023-02-11T04:40:54.754Z,27.13
2023-02-11T04:43:21.557Z,26.07
2023-02-11T04:45:48.865Z,27.00
2023-02-11T04:48:15.954Z,25.43
2023-02-11T04:50:42.852Z,26.37
2023-02-11T04:53:09.678Z,25.63
2023-02-11T04:55:36.641Z,26.57
2023-02-11T04:58:04.811Z,25.23
2023-02-11T05:00:31.606Z,24.97
2023-02-11T05:02:58.496Z,25.20
2023-02-11T05:05:25.350Z,25.07
2023-02-11T05:07:52.286Z,25.37
2023-02-11T05:10:19.331Z,24.73
2023-02-11T05:12:48.198Z,24.80
2023-02-11T05:15:16.439Z,23.30
2023-02-11T05:17:43.255Z,23.97
2023-02-11T05:20:10.979Z,25.30
2023-02-11T05:22:37.851Z,23.97
2023-02-11T05:25:05.504Z,23.07
2023-02-11T05:27:32.352Z,23.03
2023-02-11T05:29:59.194Z,23.77
2023-02-11T05:32:29.342Z,24.07
2023-02-11T05:34:56.154Z,23.00
2023-02-11T05:37:23.101Z,24.47
2023-02-11T05:39:50.044Z,23.57
2023-02-11T05:42:16.900Z,21.97
2023-02-11T05:44:43.824Z,23.07
2023-02-11T05:47:10.622Z,24.17
2023-02-11T05:49:38.824Z,23.23
2023-02-11T05:52:05.873Z,24.40
2023-02-11T05:54:32.733Z,21.93
2023-02-11T05:56:59.584Z,22.17
2023-02-11T05:59:26.470Z,23.07
2023-02-11T06:01:53.349Z,23.07
2023-02-11T06:04:20.180Z,21.07
2023-02-11T06:06:48.383Z,23.10
2023-02-11T06:09:15.268Z,21.80
2023-02-11T06:11:42.134Z,22.70
2023-02-11T06:14:09.905Z,22.60
2023-02-11T06:16:36.974Z,23.07
2023-02-11T06:19:04.061Z,22.10
2023-02-11T06:21:43.037Z,23.27
2023-02-11T06:24:12.812Z,22.77
2023-02-11T06:26:39.855Z,22.43
2023-02-11T06:29:06.740Z,21.53
2023-02-11T06:31:33.627Z,22.90
2023-02-11T06:34:01.085Z,23.40
2023-02-11T06:36:27.983Z,24.10
2023-02-11T06:38:55.659Z,23.63
2023-02-11T06:41:23.967Z,22.43
2023-02-11T06:43:52.207Z,23.73
2023-02-11T06:46:19.178Z,22.73
2023-02-11T06:48:46.258Z,23.60
2023-02-11T06:51:14.209Z,24.20
2023-02-11T06:53:43.419Z,24.00
2023-02-11T06:56:12.267Z,23.17
2023-02-11T06:58:40.710Z,22.77
2023-02-11T07:01:09.211Z,22.23
2023-02-11T07:03:37.767Z,23.00
2023-02-11T07:06:06.138Z,22.50
2023-02-11T07:08:33.484Z,22.53
2023-02-11T07:11:00.899Z,23.70
2023-02-11T07:13:27.933Z,24.60
2023-02-11T07:15:56.189Z,22.60
2023-02-11T07:18:22.997Z,22.20
2023-02-11T07:20:49.851Z,23.63
2023-02-11T07:23:16.705Z,22.97
2023-02-11T07:25:43.474Z,22.60
2023-02-11T07:28:10.381Z,22.90
2023-02-11T07:30:37.256Z,23.03
2023-02-11T07:33:05.492Z,22.13
2023-02-11T07:35:32.304Z,22.80
2023-02-11T07:37:59.228Z,22.73
2023-02-11T07:40:26.115Z,22.90
2023-02-11T07:42:52.936Z,22.03
2023-02-11T07:45:19.818Z,23.23
2023-02-11T07:47:46.672Z,20.97
2023-02-11T07:50:16.556Z,22.50
2023-02-11T07:52:43.484Z,21.33
2023-02-11T07:55:10.379Z,20.57
2023-02-11T07:57:37.381Z,21.87
2023-02-11T08:00:05.613Z,21.73
2023-02-11T08:02:32.595Z,20.93
2023-02-11T08:04:59.458Z,20.87
2023-02-11T08:07:29.653Z,22.50
2023-02-11T08:09:56.584Z,22.33
2023-02-11T08:12:23.369Z,20.77
2023-02-11T08:14:50.172Z,21.60
2023-02-11T08:17:17.158Z,22.23
2023-02-11T08:19:44.226Z,21.43
2023-02-11T08:22:11.048Z,22.07
2023-02-11T08:24:39.233Z,20.80
2023-02-11T08:27:06.101Z,22.40
2023-02-11T08:29:32.923Z,19.90
2023-02-11T08:31:59.814Z,21.03
2023-02-11T08:34:26.712Z,21.43
2023-02-11T08:36:54.128Z,19.47
2023-02-11T08:39:22.590Z,20.87
2023-02-11T08:41:52.431Z,20.40
2023-02-11T08:44:20.436Z,21.73
2023-02-11T08:46:48.307Z,20.80
2023-02-11T08:49:15.720Z,22.23
2023-02-11T08:51:43.239Z,22.37
2023-02-11T08:54:10.399Z,20.53
2023-02-11T08:56:37.440Z,23.00
2023-02-11T08:59:06.073Z,20.67
2023-02-11T09:01:33.816Z,20.33
2023-02-11T09:04:01.221Z,22.00
2023-02-11T09:06:28.710Z,21.37
2023-02-11T09:08:57.658Z,21.90
2023-02-11T09:11:28.316Z,22.03
2023-02-11T09:13:55.278Z,21.00
2023-02-11T09:16:26.030Z,22.63
2023-02-11T09:18:53.492Z,21.63
2023-02-11T09:21:20.778Z,22.70
2023-02-11T09:23:47.951Z,22.30
2023-02-11T09:26:16.992Z,20.17
2023-02-11T09:28:44.392Z,21.83
2023-02-11T09:31:13.648Z,21.90
2023-02-11T09:33:47.787Z,21.47
2023-02-11T09:36:16.002Z,21.93
2023-02-11T09:38:43.037Z,23.40
2023-02-11T09:41:49.707Z,22.10
2023-02-11T09:44:22.925Z,21.10
2023-02-11T09:46:55.874Z,21.50
2023-02-11T09:49:32.394Z,22.17
2023-02-11T09:52:05.049Z,22.67
2023-02-11T09:54:36.912Z,21.50
2023-02-11T09:57:06.196Z,22.63
2023-02-11T09:59:33.178Z,20.83
2023-02-11T10:02:06.129Z,21.10
2023-02-11T10:04:47.608Z,21.90
2023-02-11T10:07:25.340Z,21.97
2023-02-11T10:10:08.460Z,21.73
2023-02-11T10:12:59.544Z,21.47
2023-02-11T10:15:34.759Z,21.33
2023-02-11T10:18:16.109Z,21.40
2023-02-11T10:20:52.556Z,21.33
2023-02-11T10:23:24.680Z,20.67
2023-02-11T10:25:56.294Z,22.13
2023-02-11T10:28:28.646Z,21.07
2023-02-11T10:30:59.425Z,22.53
2023-02-11T10:33:30.439Z,19.70
2023-02-11T10:35:58.971Z,21.30
2023-02-11T10:38:26.413Z,22.60
2023-02-11T10:40:53.581Z,21.67
2023-02-11T10:43:24.512Z,21.20
2023-02-11T10:45:52.989Z,21.13
2023-02-11T10:48:41.505Z,20.83
2023-02-11T10:51:17.538Z,23.43
2023-02-11T10:53:44.674Z,21.83
2023-02-11T10:56:14.298Z,22.13
2023-02-11T10:58:45.104Z,22.47
2023-02-11T11:01:23.943Z,21.47
2023-02-11T11:03:52.629Z,21.33
2023-02-11T11:06:31.869Z,24.17
2023-02-11T11:08:59.511Z,21.87
2023-02-11T11:11:26.956Z,21.27
2023-02-11T11:13:59.221Z,22.47
2023-02-11T11:16:27.931Z,21.63
2023-02-11T11:19:20.395Z,20.80
2023-02-11T11:21:51.489Z,20.50
2023-02-11T11:24:20.947Z,19.30
2023-02-11T11:26:54.959Z,21.03
2023-02-11T11:29:30.530Z,19.83
2023-02-11T11:32:01.356Z,21.83
2023-02-11T11:34:31.696Z,20.67
2023-02-11T11:37:02.005Z,19.00
2023-02-11T11:39:31.663Z,19.07
2023-02-11T11:42:00.367Z,20.87
2023-02-11T11:44:30.804Z,19.43
2023-02-11T11:47:25.505Z,19.27
2023-02-11T11:50:21.210Z,20.17
2023-02-11T11:52:56.463Z,20.00
2023-02-11T11:55:27.026Z,20.57
2023-02-11T11:57:54.013Z,20.00
2023-02-11T12:00:26.440Z,20.97
2023-02-11T12:03:16.745Z,21.57
2023-02-11T12:05:51.021Z,21.43
2023-02-11T12:08:30.379Z,20.33
2023-02-11T12:11:09.476Z,20.17
2023-02-11T12:13:48.829Z,19.10
2023-02-11T12:16:30.691Z,19.17
2023-02-11T12:19:24.777Z,20.00
2023-02-11T12:21:58.385Z,20.00
2023-02-11T12:24:48.316Z,20.23
2023-02-11T12:27:21.482Z,20.07
2023-02-11T12:30:01.440Z,20.13
2023-02-11T12:32:37.454Z,19.70
2023-02-11T12:35:21.000Z,18.77
2023-02-11T12:38:32.290Z,18.87
2023-02-11T12:41:15.121Z,20.10
2023-02-11T12:43:44.397Z,18.73
2023-02-11T12:46:31.132Z,20.13
2023-02-11T12:49:26.667Z,18.93
2023-02-11T12:52:12.025Z,20.53
2023-02-11T12:54:43.790Z,18.37
2023-02-11T12:57:18.110Z,18.90
2023-02-11T12:59:51.131Z,18.40
2023-02-11T13:02:27.575Z,17.47
2023-02-11T13:04:57.214Z,17.03
2023-02-11T13:07:31.196Z,16.67
2023-02-11T13:10:02.695Z,16.40
2023-02-11T13:12:52.024Z,16.80
2023-02-11T13:15:18.879Z,15.77
2023-02-11T13:17:54.685Z,16.37
2023-02-11T13:20:32.665Z,15.60
2023-02-11T13:23:07.698Z,16.30
2023-02-11T13:25:43.145Z,15.63
2023-02-11T13:28:36.743Z,16.33
2023-02-11T13:31:07.065Z,15.90
2023-02-11T13:33:36.132Z,16.30
2023-02-11T13:36:32.878Z,15.27
2023-02-11T13:39:02.524Z,15.23
2023-02-11T13:41:36.680Z,15.07
2023-02-11T13:44:22.318Z,15.47
2023-02-11T13:47:01.472Z,15.57
2023-02-11T13:49:35.217Z,16.10
2023-02-11T13:52:04.958Z,14.23
2023-02-11T13:54:35.418Z,14.67
2023-02-11T13:57:30.083Z,15.83
2023-02-11T13:59:59.775Z,14.83
2023-02-11T14:02:49.751Z,15.13
2023-02-11T14:05:42.108Z,14.40
2023-02-11T14:08:42.673Z,13.77
2023-02-11T14:11:42.921Z,16.03
2023-02-11T14:14:23.812Z,13.20
2023-02-11T14:17:32.868Z,15.17
2023-02-11T14:20:02.260Z,14.67
2023-02-11T14:22:39.769Z,13.93
2023-02-11T14:25:18.565Z,14.20
2023-02-11T14:27:55.248Z,14.23
2023-02-11T14:30:44.734Z,13.37
2023-02-11T14:33:39.098Z,14.10
2023-02-11T14:36:23.048Z,13.70
2023-02-11T14:39:09.469Z,13.07
2023-02-11T14:41:41.551Z,13.70
2023-02-11T14:46:48.860Z,14.07
2023-02-11T14:49:25.356Z,13.30
2023-02-11T14:51:54.405Z,13.63
2023-02-11T14:54:25.252Z,12.90
2023-02-11T14:57:12.260Z,12.17
2023-02-11T14:59:40.057Z,12.20
2023-02-11T15:02:21.436Z,12.10
2023-02-11T15:04:49.767Z,12.40
2023-02-11T15:07:18.303Z,12.50
2023-02-11T15:09:48.060Z,11.47
2023-02-11T15:12:20.200Z,11.00
2023-02-11T15:14:49.569Z,10.80
2023-02-11T15:17:21.273Z,12.30
2023-02-11T15:19:53.220Z,11.53
2023-02-11T15:22:23.786Z,11.47
2023-02-11T15:24:59.435Z,11.23
2023-02-11T15:27:26.650Z,11.30
2023-02-11T15:29:53.743Z,10.63
2023-02-11T15:32:22.405Z,10.73
2023-02-11T15:34:52.733Z,11.83
2023-02-11T15:37:21.868Z,10.87
2023-02-11T15:39:49.187Z,11.80
2023-02-11T15:42:17.889Z,10.57
2023-02-11T15:44:45.404Z,10.80
2023-02-11T15:47:16.033Z,11.30
2023-02-11T15:49:45.415Z,11.10
2023-02-11T15:52:14.734Z,11.20
2023-02-11T15:54:46.419Z,11.17
2023-02-11T15:57:13.721Z,10.77
2023-02-11T15:59:45.866Z,10.23
2023-02-11T16:02:18.546Z,10.63
2023-02-11T16:04:50.845Z,11.03
2023-02-11T16:07:43.961Z,10.53
2023-02-11T16:10:19.533Z,11.10
2023-02-11T16:12:52.769Z,10.70
2023-02-11T16:15:44.474Z,11.00
2023-02-11T16:18:37.323Z,10.03
2023-02-11T16:21:06.996Z,10.20
2023-02-11T16:23:38.526Z,11.30
2023-02-11T16:26:08.895Z,10.10
2023-02-11T16:28:37.209Z,9.43
2023-02-11T16:31:05.125Z,10.00
2023-02-11T16:33:32.032Z,9.93
2023-02-11T16:36:02.038Z,10.07
2023-02-11T16:38:30.374Z,10.63
2023-02-11T16:40:58.525Z,10.00
2023-02-11T16:43:25.386Z,10.83
2023-02-11T16:45:52.722Z,11.07
2023-02-11T16:48:20.655Z,9.67
2023-02-11T16:50:51.527Z,11.20
2023-02-11T16:53:23.528Z,10.30
2023-02-11T16:55:51.244Z,10.93
2023-02-11T16:58:19.597Z,10.37
2023-02-11T17:00:48.325Z,10.10
2023-02-11T17:03:19.980Z,10.57
2023-02-11T17:05:55.357Z,11.53
2023-02-11T17:08:22.725Z,10.47
2023-02-11T17:10:50.208Z,11.40
2023-02-11T17:13:18.936Z,13.77
2023-02-11T17:15:45.866Z,11.67
2023-02-11T17:18:14.370Z,11.50
2023-02-11T17:20:41.809Z,11.77
2023-02-11T17:23:09.247Z,10.80
2023-02-11T17:25:39.304Z,10.47
2023-02-11T17:28:08.466Z,10.07
2023-02-11T17:30:38.904Z,10.97
2023-02-11T17:33:05.720Z,10.70
2023-02-11T17:35:32.664Z,10.17
2023-02-11T17:38:01.351Z,10.83
2023-02-11T17:40:28.352Z,10.50
2023-02-11T17:42:55.293Z,12.20
2023-02-11T17:45:22.606Z,13.33
2023-02-11T17:47:50.947Z,13.50
2023-02-11T17:50:18.205Z,13.97
2023-02-11T17:52:45.053Z,14.33
2023-02-11T17:55:11.878Z,13.97
2023-02-11T17:57:39.192Z,12.93
2023-02-11T18:00:07.873Z,14.83
2023-02-11T18:02:34.994Z,14.33
2023-02-11T18:05:03.511Z,13.93
2023-02-11T18:07:30.541Z,14.77
2023-02-11T18:09:57.448Z,13.60
2023-02-11T18:12:27.319Z,14.97
2023-02-11T18:14:57.848Z,14.50
2023-02-11T18:17:25.278Z,14.27
2023-02-11T18:19:55.930Z,14.83
2023-02-11T18:22:25.066Z,14.20
2023-02-11T18:24:52.920Z,15.07
2023-02-11T18:27:20.203Z,14.30
2023-02-11T18:29:47.253Z,14.97
2023-02-11T18:32:14.159Z,14.93
2023-02-11T18:34:41.634Z,15.17
2023-02-11T18:37:08.855Z,16.97
2023-02-11T18:39:37.171Z,16.20
2023-02-11T18:42:04.337Z,15.43
2023-02-11T18:44:31.355Z,16.00
2023-02-11T18:46:58.278Z,15.63
2023-02-11T18:49:25.180Z,16.10
2023-02-11T18:51:52.147Z,16.30
2023-02-11T18:54:19.161Z,16.33
2023-02-11T18:56:47.357Z,15.53
2023-02-11T18:59:14.181Z,15.07
2023-02-11T19:01:43.333Z,16.27
2023-02-11T19:04:10.373Z,16.57
2023-02-11T19:06:37.891Z,16.07
2023-02-11T19:09:06.718Z,15.40
2023-02-11T19:11:53.915Z,18.57
2023-02-11T19:14:24.297Z,17.67
2023-02-11T19:16:53.338Z,16.30
2023-02-11T19:19:23.165Z,16.77
2023-02-11T19:21:51.274Z,16.47
2023-02-11T19:24:21.535Z,19.03
2023-02-11T19:26:49.617Z,17.70
2023-02-11T19:29:17.033Z,16.93
2023-02-11T19:31:46.160Z,16.20
2023-02-11T19:34:14.648Z,17.07
2023-02-11T19:36:41.745Z,17.40
2023-02-11T19:39:09.063Z,17.97
2023-02-11T19:41:36.407Z,18.07
2023-02-11T19:44:04.758Z,18.27
2023-02-11T19:46:34.474Z,17.97
2023-02-11T19:49:03.771Z,18.07
2023-02-11T19:51:33.489Z,17.33
2023-02-11T19:54:01.003Z,17.23
2023-02-11T19:56:31.147Z,17.23
2023-02-11T19:58:58.121Z,18.10
2023-02-11T20:01:26.120Z,17.17
2023-02-11T20:03:54.680Z,18.17
2023-02-11T20:06:25.576Z,18.80
2023-02-11T20:08:57.189Z,17.97
2023-02-11T20:11:26.895Z,17.60
2023-02-11T20:13:53.834Z,17.97
2023-02-11T20:16:22.069Z,17.20
2023-02-11T20:18:50.022Z,18.80
2023-02-11T20:21:18.674Z,19.17
2023-02-11T20:23:47.894Z,17.47
2023-02-11T20:26:17.442Z,17.93
2023-02-11T20:28:44.955Z,17.40
2023-02-11T20:31:12.753Z,18.17
2023-02-11T20:33:40.784Z,16.93
2023-02-11T20:36:09.340Z,17.13
2023-02-11T20:38:36.290Z,16.97
2023-02-11T20:41:06.219Z,18.07
2023-02-11T20:43:34.022Z,17.67
2023-02-11T20:46:03.357Z,18.87
2023-02-11T20:48:30.601Z,19.40
2023-02-11T20:51:02.941Z,18.80
2023-02-11T20:53:29.919Z,19.57
2023-02-11T20:55:56.887Z,18.50
2023-02-11T20:58:25.158Z,18.73
2023-02-11T21:00:52.002Z,19.13
2023-02-11T21:03:18.993Z,17.67
2023-02-11T21:05:45.910Z,19.80
2023-02-11T21:08:12.892Z,18.43
2023-02-11T21:10:39.869Z,19.27
2023-02-11T21:13:06.880Z,18.87
2023-02-11T21:15:35.132Z,18.13
2023-02-11T21:18:01.986Z,19.50
2023-02-11T21:20:28.892Z,18.37
2023-02-11T21:22:56.053Z,18.73
2023-02-11T21:25:22.899Z,19.67
2023-02-11T21:27:49.736Z,19.30
2023-02-11T21:30:17.432Z,19.47
2023-02-11T21:32:45.693Z,20.23
2023-02-11T21:35:12.586Z,21.07
2023-02-11T21:37:39.411Z,20.53
2023-02-11T21:40:07.805Z,19.57
2023-02-11T21:42:35.560Z,20.80
2023-02-11T21:45:02.519Z,20.40
2023-02-11T21:47:29.742Z,19.17
2023-02-11T21:49:58.076Z,19.37
2023-02-11T21:52:25.066Z,18.57
2023-02-11T21:54:52.007Z,20.80
2023-02-11T21:57:18.932Z,20.03
2023-02-11T21:59:45.892Z,21.77
2023-02-11T22:02:12.732Z,22.20
2023-02-11T22:04:39.706Z,21.57
2023-02-11T22:07:07.922Z,19.70
2023-02-11T22:09:34.716Z,19.67
2023-02-11T22:12:01.607Z,19.83
2023-02-11T22:14:30.138Z,22.33
2023-02-11T22:16:58.852Z,23.47
2023-02-11T22:19:25.790Z,22.40
2023-02-11T22:21:52.700Z,21.53
2023-02-11T22:24:20.960Z,19.53
2023-02-11T22:26:47.860Z,20.67
2023-02-11T22:29:14.728Z,19.60
2023-02-11T22:31:41.746Z,19.73
2023-02-11T22:34:08.849Z,19.20
2023-02-11T22:36:38.876Z,20.23
2023-02-11T22:39:08.148Z,20.40
2023-02-11T22:41:38.286Z,19.90
2023-02-11T22:44:05.392Z,19.43
2023-02-11T22:46:32.566Z,19.97
2023-02-11T22:48:59.455Z,19.60
2023-02-11T22:51:27.943Z,19.57
2023-02-11T22:53:56.568Z,19.40
2023-02-11T22:56:24.372Z,21.40
2023-02-11T22:58:53.663Z,19.70
2023-02-11T23:01:20.914Z,20.57
2023-02-11T23:03:47.848Z,21.33
2023-02-11T23:06:15.175Z,19.67
2023-02-11T23:08:43.237Z,20.03
2023-02-11T23:11:11.914Z,20.27
2023-02-11T23:13:40.437Z,19.87
2023-02-11T23:16:10.900Z,18.83
2023-02-11T23:18:39.922Z,21.20
2023-02-11T23:21:12.411Z,18.63
2023-02-11T23:23:39.653Z,18.93
2023-02-11T23:26:09.479Z,20.87
2023-02-11T23:28:36.585Z,19.43
2023-02-11T23:31:15.091Z,20.90
2023-02-11T23:33:42.072Z,20.10
2023-02-11T23:36:09.677Z,19.63
2023-02-11T23:38:36.610Z,19.20
2023-02-11T23:41:03.779Z,19.57
2023-02-11T23:43:31.008Z,20.27
2023-02-11T23:45:58.315Z,21.23
2023-02-11T23:48:26.958Z,18.93
2023-02-11T23:50:53.992Z,19.23
2023-02-11T23:53:20.845Z,19.23
2023-02-11T23:55:47.750Z,19.33
2023-02-11T23:58:15.365Z,19.10
